sensor_id;sensor_type;location;lat;lon;timestamp;P1;durP1;ratioP1;P2;durP2;ratioP2
39344;SDS011;25061;51.954;6.996;2022-12-28T00:01:10;5.57;;;1.65;;
39344;SDS011;25061;51.954;6.996;2022-12-28T00:03:45;5.70;;;1.48;;
39344;SDS011;25061;51.954;6.996;2022-12-28T00:06:11;11.70;;;3.05;;
39344;SDS011;25061;51.954;6.996;2022-12-28T00:08:37;7.28;;;1.70;;
39344;SDS011;25061;51.954;6.996;2022-12-28T00:11:07;4.25;;;1.38;;
39344;SDS011;25061;51.954;6.996;2022-12-28T00:13:36;10.20;;;2.22;;
39344;SDS011;25061;51.954;6.996;2022-12-28T00:16:09;8.05;;;2.00;;
39344;SDS011;25061;51.954;6.996;2022-12-28T00:18:41;10.02;;;2.78;;
39344;SDS011;25061;51.954;6.996;2022-12-28T00:21:07;4.50;;;1.50;;
39344;SDS011;25061;51.954;6.996;2022-12-28T00:23:33;7.53;;;2.05;;
39344;SDS011;25061;51.954;6.996;2022-12-28T00:26:05;5.63;;;1.27;;
39344;SDS011;25061;51.954;6.996;2022-12-28T00:28:32;5.35;;;1.73;;
39344;SDS011;25061;51.954;6.996;2022-12-28T00:30:58;4.97;;;1.40;;
39344;SDS011;25061;51.954;6.996;2022-12-28T00:33:23;5.25;;;1.30;;
39344;SDS011;25061;51.954;6.996;2022-12-28T00:35:52;8.82;;;2.15;;
39344;SDS011;25061;51.954;6.996;2022-12-28T00:38:22;5.60;;;1.70;;
39344;SDS011;25061;51.954;6.996;2022-12-28T00:40:48;7.88;;;2.42;;
39344;SDS011;25061;51.954;6.996;2022-12-28T00:43:14;4.43;;;1.70;;
39344;SDS011;25061;51.954;6.996;2022-12-28T00:45:43;8.45;;;1.75;;
39344;SDS011;25061;51.954;6.996;2022-12-28T00:48:09;5.85;;;1.52;;
39344;SDS011;25061;51.954;6.996;2022-12-28T00:50:35;8.55;;;1.98;;
39344;SDS011;25061;51.954;6.996;2022-12-28T00:53:00;7.30;;;1.83;;
39344;SDS011;25061;51.954;6.996;2022-12-28T00:55:26;8.90;;;2.35;;
39344;SDS011;25061;51.954;6.996;2022-12-28T00:57:51;7.10;;;2.10;;
39344;SDS011;25061;51.954;6.996;2022-12-28T01:00:17;6.45;;;2.20;;
39344;SDS011;25061;51.954;6.996;2022-12-28T01:02:42;7.65;;;1.70;;
39344;SDS011;25061;51.954;6.996;2022-12-28T01:05:08;4.75;;;1.30;;
39344;SDS011;25061;51.954;6.996;2022-12-28T01:07:34;5.55;;;1.58;;
39344;SDS011;25061;51.954;6.996;2022-12-28T01:09:59;8.38;;;2.50;;
39344;SDS011;25061;51.954;6.996;2022-12-28T01:12:25;6.70;;;2.00;;
39344;SDS011;25061;51.954;6.996;2022-12-28T01:14:50;6.82;;;1.70;;
39344;SDS011;25061;51.954;6.996;2022-12-28T01:17:16;5.78;;;1.50;;
39344;SDS011;25061;51.954;6.996;2022-12-28T01:19:41;6.18;;;1.50;;
39344;SDS011;25061;51.954;6.996;2022-12-28T01:22:07;6.80;;;2.47;;
39344;SDS011;25061;51.954;6.996;2022-12-28T01:24:34;6.93;;;1.33;;
39344;SDS011;25061;51.954;6.996;2022-12-28T01:26:59;7.60;;;1.60;;
39344;SDS011;25061;51.954;6.996;2022-12-28T01:29:25;7.90;;;1.65;;
39344;SDS011;25061;51.954;6.996;2022-12-28T01:31:50;6.20;;;1.80;;
39344;SDS011;25061;51.954;6.996;2022-12-28T01:34:16;11.63;;;1.90;;
39344;SDS011;25061;51.954;6.996;2022-12-28T01:36:41;7.68;;;2.08;;
39344;SDS011;25061;51.954;6.996;2022-12-28T01:39:07;10.07;;;2.38;;
39344;SDS011;25061;51.954;6.996;2022-12-28T01:41:36;6.03;;;2.05;;
39344;SDS011;25061;51.954;6.996;2022-12-28T01:46:38;8.85;;;1.80;;
39344;SDS011;25061;51.954;6.996;2022-12-28T01:49:42;6.93;;;1.75;;
39344;SDS011;25061;51.954;6.996;2022-12-28T01:52:19;6.85;;;1.95;;
39344;SDS011;25061;51.954;6.996;2022-12-28T01:57:17;8.70;;;2.05;;
39344;SDS011;25061;51.954;6.996;2022-12-28T01:59:50;8.82;;;1.95;;
39344;SDS011;25061;51.954;6.996;2022-12-28T02:02:20;5.13;;;1.83;;
39344;SDS011;25061;51.954;6.996;2022-12-28T02:04:46;6.70;;;2.50;;
39344;SDS011;25061;51.954;6.996;2022-12-28T02:07:18;5.07;;;1.52;;
39344;SDS011;25061;51.954;6.996;2022-12-28T02:09:54;7.93;;;1.80;;
39344;SDS011;25061;51.954;6.996;2022-12-28T02:12:20;5.72;;;1.48;;
39344;SDS011;25061;51.954;6.996;2022-12-28T02:14:46;5.25;;;1.65;;
39344;SDS011;25061;51.954;6.996;2022-12-28T02:17:11;4.80;;;1.63;;
39344;SDS011;25061;51.954;6.996;2022-12-28T02:19:45;7.55;;;1.75;;
39344;SDS011;25061;51.954;6.996;2022-12-28T02:22:17;11.10;;;2.25;;
39344;SDS011;25061;51.954;6.996;2022-12-28T02:30:22;6.38;;;1.63;;
39344;SDS011;25061;51.954;6.996;2022-12-28T02:35:42;8.52;;;2.53;;
39344;SDS011;25061;51.954;6.996;2022-12-28T02:38:16;5.13;;;1.80;;
39344;SDS011;25061;51.954;6.996;2022-12-28T02:40:48;6.57;;;1.65;;
39344;SDS011;25061;51.954;6.996;2022-12-28T02:43:16;8.50;;;2.42;;
39344;SDS011;25061;51.954;6.996;2022-12-28T02:45:42;8.70;;;2.20;;
39344;SDS011;25061;51.954;6.996;2022-12-28T02:48:38;7.50;;;1.85;;
39344;SDS011;25061;51.954;6.996;2022-12-28T02:57:33;4.38;;;1.40;;
39344;SDS011;25061;51.954;6.996;2022-12-28T03:00:17;7.90;;;1.88;;
39344;SDS011;25061;51.954;6.996;2022-12-28T03:02:52;4.40;;;1.70;;
39344;SDS011;25061;51.954;6.996;2022-12-28T03:11:41;6.15;;;1.60;;
39344;SDS011;25061;51.954;6.996;2022-12-28T03:14:13;8.23;;;1.80;;
39344;SDS011;25061;51.954;6.996;2022-12-28T03:16:53;6.72;;;1.60;;
39344;SDS011;25061;51.954;6.996;2022-12-28T03:19:42;6.05;;;1.85;;
39344;SDS011;25061;51.954;6.996;2022-12-28T03:22:29;5.93;;;1.45;;
39344;SDS011;25061;51.954;6.996;2022-12-28T03:25:17;5.63;;;1.60;;
39344;SDS011;25061;51.954;6.996;2022-12-28T03:28:06;5.88;;;1.52;;
39344;SDS011;25061;51.954;6.996;2022-12-28T03:30:54;6.70;;;1.60;;
39344;SDS011;25061;51.954;6.996;2022-12-28T03:33:27;9.40;;;1.98;;
39344;SDS011;25061;51.954;6.996;2022-12-28T03:38:41;6.63;;;1.70;;
39344;SDS011;25061;51.954;6.996;2022-12-28T03:41:15;8.48;;;2.05;;
39344;SDS011;25061;51.954;6.996;2022-12-28T03:43:51;6.57;;;1.90;;
39344;SDS011;25061;51.954;6.996;2022-12-28T03:46:25;9.02;;;2.00;;
39344;SDS011;25061;51.954;6.996;2022-12-28T03:48:58;7.15;;;1.98;;
39344;SDS011;25061;51.954;6.996;2022-12-28T03:51:25;8.00;;;2.17;;
39344;SDS011;25061;51.954;6.996;2022-12-28T03:53:53;11.65;;;2.15;;
39344;SDS011;25061;51.954;6.996;2022-12-28T03:56:20;7.85;;;2.38;;
39344;SDS011;25061;51.954;6.996;2022-12-28T03:58:48;6.80;;;2.33;;
39344;SDS011;25061;51.954;6.996;2022-12-28T04:01:14;5.68;;;2.15;;
39344;SDS011;25061;51.954;6.996;2022-12-28T04:03:40;7.13;;;2.10;;
39344;SDS011;25061;51.954;6.996;2022-12-28T04:06:07;11.02;;;2.72;;
39344;SDS011;25061;51.954;6.996;2022-12-28T04:08:35;5.65;;;2.05;;
39344;SDS011;25061;51.954;6.996;2022-12-28T04:11:01;6.28;;;2.35;;
39344;SDS011;25061;51.954;6.996;2022-12-28T04:13:30;8.50;;;2.47;;
39344;SDS011;25061;51.954;6.996;2022-12-28T04:15:57;7.45;;;2.20;;
39344;SDS011;25061;51.954;6.996;2022-12-28T04:18:24;9.82;;;2.17;;
39344;SDS011;25061;51.954;6.996;2022-12-28T04:20:50;7.15;;;2.80;;
39344;SDS011;25061;51.954;6.996;2022-12-28T04:23:16;6.28;;;2.17;;
39344;SDS011;25061;51.954;6.996;2022-12-28T04:25:42;7.57;;;2.08;;
39344;SDS011;25061;51.954;6.996;2022-12-28T04:28:07;9.77;;;2.35;;
39344;SDS011;25061;51.954;6.996;2022-12-28T04:30:33;6.38;;;2.28;;
39344;SDS011;25061;51.954;6.996;2022-12-28T04:32:58;5.47;;;2.03;;
39344;SDS011;25061;51.954;6.996;2022-12-28T04:35:24;4.43;;;1.98;;
39344;SDS011;25061;51.954;6.996;2022-12-28T04:37:49;5.80;;;2.20;;
39344;SDS011;25061;51.954;6.996;2022-12-28T04:40:15;7.88;;;2.53;;
39344;SDS011;25061;51.954;6.996;2022-12-28T04:42:40;6.38;;;2.25;;
39344;SDS011;25061;51.954;6.996;2022-12-28T04:45:06;6.35;;;1.83;;
39344;SDS011;25061;51.954;6.996;2022-12-28T04:47:32;8.73;;;2.72;;
39344;SDS011;25061;51.954;6.996;2022-12-28T04:49:57;6.05;;;1.55;;
39344;SDS011;25061;51.954;6.996;2022-12-28T04:52:23;5.80;;;1.92;;
39344;SDS011;25061;51.954;6.996;2022-12-28T04:54:48;4.78;;;2.13;;
39344;SDS011;25061;51.954;6.996;2022-12-28T04:57:14;6.88;;;2.40;;
39344;SDS011;25061;51.954;6.996;2022-12-28T04:59:40;5.88;;;2.28;;
39344;SDS011;25061;51.954;6.996;2022-12-28T05:02:05;6.18;;;2.30;;
39344;SDS011;25061;51.954;6.996;2022-12-28T05:04:31;7.22;;;1.98;;
39344;SDS011;25061;51.954;6.996;2022-12-28T05:06:57;7.50;;;2.20;;
39344;SDS011;25061;51.954;6.996;2022-12-28T05:09:22;5.65;;;2.13;;
39344;SDS011;25061;51.954;6.996;2022-12-28T05:11:48;6.60;;;2.33;;
39344;SDS011;25061;51.954;6.996;2022-12-28T05:14:14;7.40;;;2.85;;
39344;SDS011;25061;51.954;6.996;2022-12-28T05:16:39;8.73;;;2.45;;
39344;SDS011;25061;51.954;6.996;2022-12-28T05:19:05;6.55;;;2.30;;
39344;SDS011;25061;51.954;6.996;2022-12-28T05:21:30;11.48;;;3.25;;
39344;SDS011;25061;51.954;6.996;2022-12-28T05:23:56;6.18;;;2.40;;
39344;SDS011;25061;51.954;6.996;2022-12-28T05:26:23;7.35;;;2.80;;
39344;SDS011;25061;51.954;6.996;2022-12-28T05:28:51;8.93;;;2.63;;
39344;SDS011;25061;51.954;6.996;2022-12-28T05:31:17;7.43;;;3.00;;
39344;SDS011;25061;51.954;6.996;2022-12-28T05:33:45;6.57;;;2.85;;
39344;SDS011;25061;51.954;6.996;2022-12-28T05:36:15;6.18;;;2.72;;
39344;SDS011;25061;51.954;6.996;2022-12-28T05:38:43;7.63;;;2.65;;
39344;SDS011;25061;51.954;6.996;2022-12-28T05:41:16;8.02;;;2.97;;
39344;SDS011;25061;51.954;6.996;2022-12-28T05:43:44;6.45;;;2.95;;
39344;SDS011;25061;51.954;6.996;2022-12-28T05:46:15;8.27;;;2.80;;
39344;SDS011;25061;51.954;6.996;2022-12-28T05:48:43;9.40;;;3.00;;
39344;SDS011;25061;51.954;6.996;2022-12-28T05:51:10;7.07;;;3.35;;
39344;SDS011;25061;51.954;6.996;2022-12-28T05:53:37;8.35;;;3.40;;
39344;SDS011;25061;51.954;6.996;2022-12-28T05:56:07;7.55;;;3.03;;
39344;SDS011;25061;51.954;6.996;2022-12-28T05:58:36;10.98;;;3.63;;
39344;SDS011;25061;51.954;6.996;2022-12-28T06:01:12;8.77;;;3.38;;
39344;SDS011;25061;51.954;6.996;2022-12-28T06:03:40;9.32;;;3.60;;
39344;SDS011;25061;51.954;6.996;2022-12-28T06:06:07;7.55;;;3.33;;
39344;SDS011;25061;51.954;6.996;2022-12-28T06:08:33;7.10;;;3.45;;
39344;SDS011;25061;51.954;6.996;2022-12-28T06:11:03;8.80;;;3.03;;
39344;SDS011;25061;51.954;6.996;2022-12-28T06:13:31;7.78;;;2.92;;
39344;SDS011;25061;51.954;6.996;2022-12-28T06:15:56;9.00;;;3.03;;
39344;SDS011;25061;51.954;6.996;2022-12-28T06:18:22;9.32;;;3.10;;
39344;SDS011;25061;51.954;6.996;2022-12-28T06:20:48;7.32;;;2.80;;
39344;SDS011;25061;51.954;6.996;2022-12-28T06:23:14;8.38;;;2.72;;
39344;SDS011;25061;51.954;6.996;2022-12-28T06:25:39;6.38;;;2.40;;
39344;SDS011;25061;51.954;6.996;2022-12-28T06:28:05;8.25;;;2.58;;
39344;SDS011;25061;51.954;6.996;2022-12-28T06:30:31;5.65;;;2.45;;
39344;SDS011;25061;51.954;6.996;2022-12-28T06:32:56;5.60;;;2.20;;
39344;SDS011;25061;51.954;6.996;2022-12-28T06:35:22;5.80;;;2.17;;
39344;SDS011;25061;51.954;6.996;2022-12-28T06:37:48;5.68;;;2.00;;
39344;SDS011;25061;51.954;6.996;2022-12-28T06:40:14;5.80;;;2.20;;
39344;SDS011;25061;51.954;6.996;2022-12-28T06:42:40;4.65;;;2.03;;
39344;SDS011;25061;51.954;6.996;2022-12-28T06:45:05;6.00;;;2.33;;
39344;SDS011;25061;51.954;6.996;2022-12-28T06:47:31;6.03;;;2.05;;
39344;SDS011;25061;51.954;6.996;2022-12-28T06:50:01;4.25;;;2.15;;
39344;SDS011;25061;51.954;6.996;2022-12-28T06:52:27;4.07;;;1.70;;
39344;SDS011;25061;51.954;6.996;2022-12-28T06:54:52;5.13;;;2.30;;
39344;SDS011;25061;51.954;6.996;2022-12-28T06:57:18;5.28;;;2.10;;
39344;SDS011;25061;51.954;6.996;2022-12-28T06:59:44;8.50;;;3.22;;
39344;SDS011;25061;51.954;6.996;2022-12-28T07:02:10;5.07;;;2.00;;
39344;SDS011;25061;51.954;6.996;2022-12-28T07:04:35;5.25;;;2.10;;
39344;SDS011;25061;51.954;6.996;2022-12-28T07:07:01;4.68;;;1.83;;
39344;SDS011;25061;51.954;6.996;2022-12-28T07:09:26;4.63;;;1.88;;
39344;SDS011;25061;51.954;6.996;2022-12-28T07:11:52;7.30;;;2.60;;
39344;SDS011;25061;51.954;6.996;2022-12-28T07:14:17;5.70;;;2.22;;
39344;SDS011;25061;51.954;6.996;2022-12-28T07:16:43;4.72;;;1.80;;
39344;SDS011;25061;51.954;6.996;2022-12-28T07:19:09;4.40;;;1.90;;
39344;SDS011;25061;51.954;6.996;2022-12-28T07:21:35;5.90;;;1.80;;
39344;SDS011;25061;51.954;6.996;2022-12-28T07:24:02;6.00;;;2.33;;
39344;SDS011;25061;51.954;6.996;2022-12-28T07:26:29;4.43;;;2.10;;
39344;SDS011;25061;51.954;6.996;2022-12-28T07:28:57;5.63;;;2.20;;
39344;SDS011;25061;51.954;6.996;2022-12-28T07:31:26;5.57;;;1.80;;
39344;SDS011;25061;51.954;6.996;2022-12-28T07:33:54;6.53;;;2.10;;
39344;SDS011;25061;51.954;6.996;2022-12-28T07:36:21;5.45;;;2.10;;
39344;SDS011;25061;51.954;6.996;2022-12-28T07:38:47;6.03;;;2.30;;
39344;SDS011;25061;51.954;6.996;2022-12-28T07:41:15;7.72;;;2.80;;
39344;SDS011;25061;51.954;6.996;2022-12-28T07:43:42;8.63;;;3.67;;
39344;SDS011;25061;51.954;6.996;2022-12-28T07:48:44;5.55;;;2.20;;
39344;SDS011;25061;51.954;6.996;2022-12-28T07:51:12;6.40;;;2.75;;
39344;SDS011;25061;51.954;6.996;2022-12-28T07:53:40;7.22;;;2.85;;
39344;SDS011;25061;51.954;6.996;2022-12-28T07:56:07;6.07;;;2.38;;
39344;SDS011;25061;51.954;6.996;2022-12-28T07:58:34;5.45;;;2.40;;
39344;SDS011;25061;51.954;6.996;2022-12-28T08:01:09;6.10;;;2.28;;
39344;SDS011;25061;51.954;6.996;2022-12-28T08:03:40;5.65;;;2.03;;
39344;SDS011;25061;51.954;6.996;2022-12-28T08:06:10;5.25;;;2.20;;
39344;SDS011;25061;51.954;6.996;2022-12-28T08:08:43;5.68;;;2.50;;
39344;SDS011;25061;51.954;6.996;2022-12-28T08:11:15;7.05;;;2.95;;
39344;SDS011;25061;51.954;6.996;2022-12-28T08:16:09;5.72;;;1.85;;
39344;SDS011;25061;51.954;6.996;2022-12-28T08:18:37;5.05;;;2.00;;
39344;SDS011;25061;51.954;6.996;2022-12-28T08:21:05;4.80;;;2.25;;
39344;SDS011;25061;51.954;6.996;2022-12-28T08:23:32;5.88;;;2.20;;
39344;SDS011;25061;51.954;6.996;2022-12-28T08:28:37;6.82;;;2.65;;
39344;SDS011;25061;51.954;6.996;2022-12-28T08:31:11;5.28;;;2.30;;
39344;SDS011;25061;51.954;6.996;2022-12-28T08:33:38;5.65;;;2.28;;
39344;SDS011;25061;51.954;6.996;2022-12-28T08:36:04;5.10;;;1.92;;
39344;SDS011;25061;51.954;6.996;2022-12-28T08:38:31;5.68;;;2.00;;
39344;SDS011;25061;51.954;6.996;2022-12-28T08:40:58;5.28;;;2.03;;
39344;SDS011;25061;51.954;6.996;2022-12-28T08:43:25;6.10;;;2.08;;
39344;SDS011;25061;51.954;6.996;2022-12-28T08:46:35;5.50;;;1.90;;
39344;SDS011;25061;51.954;6.996;2022-12-28T08:48:45;4.88;;;2.03;;
39344;SDS011;25061;51.954;6.996;2022-12-28T08:51:13;5.70;;;2.28;;
39344;SDS011;25061;51.954;6.996;2022-12-28T08:53:44;6.50;;;2.25;;
39344;SDS011;25061;51.954;6.996;2022-12-28T08:56:15;5.00;;;2.10;;
39344;SDS011;25061;51.954;6.996;2022-12-28T08:58:43;4.30;;;1.70;;
39344;SDS011;25061;51.954;6.996;2022-12-28T09:01:14;5.38;;;1.88;;
39344;SDS011;25061;51.954;6.996;2022-12-28T09:03:47;4.63;;;2.10;;
39344;SDS011;25061;51.954;6.996;2022-12-28T09:06:15;4.90;;;1.70;;
39344;SDS011;25061;51.954;6.996;2022-12-28T09:08:42;4.22;;;1.75;;
39344;SDS011;25061;51.954;6.996;2022-12-28T09:11:10;4.45;;;1.90;;
39344;SDS011;25061;51.954;6.996;2022-12-28T09:13:37;4.65;;;2.10;;
39344;SDS011;25061;51.954;6.996;2022-12-28T09:16:04;4.47;;;1.60;;
39344;SDS011;25061;51.954;6.996;2022-12-28T09:18:32;3.80;;;1.85;;
39344;SDS011;25061;51.954;6.996;2022-12-28T09:21:05;4.00;;;1.70;;
39344;SDS011;25061;51.954;6.996;2022-12-28T09:23:38;2.85;;;1.60;;
39344;SDS011;25061;51.954;6.996;2022-12-28T09:26:09;3.28;;;1.60;;
39344;SDS011;25061;51.954;6.996;2022-12-28T09:28:43;3.75;;;1.60;;
39344;SDS011;25061;51.954;6.996;2022-12-28T09:31:10;3.13;;;1.30;;
39344;SDS011;25061;51.954;6.996;2022-12-28T09:33:35;4.15;;;1.50;;
39344;SDS011;25061;51.954;6.996;2022-12-28T09:36:20;3.55;;;1.20;;
39344;SDS011;25061;51.954;6.996;2022-12-28T09:38:46;4.28;;;1.48;;
39344;SDS011;25061;51.954;6.996;2022-12-28T09:43:54;3.92;;;1.77;;
39344;SDS011;25061;51.954;6.996;2022-12-28T09:46:42;3.72;;;1.52;;
39344;SDS011;25061;51.954;6.996;2022-12-28T09:51:51;2.65;;;1.40;;
39344;SDS011;25061;51.954;6.996;2022-12-28T09:54:22;4.33;;;1.47;;
39344;SDS011;25061;51.954;6.996;2022-12-28T09:56:48;3.47;;;1.48;;
39344;SDS011;25061;51.954;6.996;2022-12-28T09:59:15;3.28;;;1.45;;
39344;SDS011;25061;51.954;6.996;2022-12-28T10:01:49;3.78;;;1.30;;
39344;SDS011;25061;51.954;6.996;2022-12-28T10:04:23;4.60;;;1.98;;
39344;SDS011;25061;51.954;6.996;2022-12-28T10:06:49;3.33;;;1.42;;
39344;SDS011;25061;51.954;6.996;2022-12-28T10:09:24;2.38;;;1.20;;
39344;SDS011;25061;51.954;6.996;2022-12-28T10:11:53;2.85;;;1.30;;
39344;SDS011;25061;51.954;6.996;2022-12-28T10:14:19;3.17;;;1.35;;
39344;SDS011;25061;51.954;6.996;2022-12-28T10:16:51;5.72;;;1.40;;
39344;SDS011;25061;51.954;6.996;2022-12-28T10:19:17;4.60;;;2.08;;
39344;SDS011;25061;51.954;6.996;2022-12-28T10:21:46;4.53;;;1.40;;
39344;SDS011;25061;51.954;6.996;2022-12-28T10:24:23;2.72;;;1.25;;
39344;SDS011;25061;51.954;6.996;2022-12-28T10:26:49;4.82;;;1.88;;
39344;SDS011;25061;51.954;6.996;2022-12-28T10:29:17;6.60;;;1.98;;
39344;SDS011;25061;51.954;6.996;2022-12-28T10:31:44;6.90;;;2.53;;
39344;SDS011;25061;51.954;6.996;2022-12-28T10:37:45;6.18;;;1.52;;
39344;SDS011;25061;51.954;6.996;2022-12-28T10:40:17;2.38;;;1.30;;
39344;SDS011;25061;51.954;6.996;2022-12-28T10:42:51;4.80;;;1.45;;
39344;SDS011;25061;51.954;6.996;2022-12-28T10:45:19;3.45;;;1.30;;
39344;SDS011;25061;51.954;6.996;2022-12-28T10:47:48;5.05;;;1.40;;
39344;SDS011;25061;51.954;6.996;2022-12-28T11:01:34;8.05;;;2.65;;
39344;SDS011;25061;51.954;6.996;2022-12-28T11:04:01;4.03;;;1.48;;
39344;SDS011;25061;51.954;6.996;2022-12-28T11:06:35;3.55;;;1.15;;
39344;SDS011;25061;51.954;6.996;2022-12-28T11:09:15;4.25;;;1.20;;
39344;SDS011;25061;51.954;6.996;2022-12-28T11:11:44;3.40;;;1.27;;
39344;SDS011;25061;51.954;6.996;2022-12-28T11:14:15;3.00;;;1.10;;
39344;SDS011;25061;51.954;6.996;2022-12-28T11:16:45;3.88;;;1.00;;
39344;SDS011;25061;51.954;6.996;2022-12-28T11:19:11;6.03;;;1.40;;
39344;SDS011;25061;51.954;6.996;2022-12-28T11:21:37;3.05;;;1.30;;
39344;SDS011;25061;51.954;6.996;2022-12-28T11:24:05;3.30;;;0.90;;
39344;SDS011;25061;51.954;6.996;2022-12-28T11:26:30;4.25;;;1.20;;
39344;SDS011;25061;51.954;6.996;2022-12-28T11:28:57;3.03;;;1.02;;
39344;SDS011;25061;51.954;6.996;2022-12-28T11:31:36;2.53;;;1.10;;
39344;SDS011;25061;51.954;6.996;2022-12-28T11:34:18;2.30;;;1.00;;
39344;SDS011;25061;51.954;6.996;2022-12-28T11:36:47;2.25;;;0.90;;
39344;SDS011;25061;51.954;6.996;2022-12-28T11:41:54;4.47;;;1.00;;
39344;SDS011;25061;51.954;6.996;2022-12-28T11:44:22;2.35;;;1.20;;
39344;SDS011;25061;51.954;6.996;2022-12-28T11:46:59;2.40;;;0.90;;
39344;SDS011;25061;51.954;6.996;2022-12-28T11:49:43;2.97;;;0.93;;
39344;SDS011;25061;51.954;6.996;2022-12-28T11:57:36;4.03;;;1.10;;
39344;SDS011;25061;51.954;6.996;2022-12-28T12:00:40;4.03;;;1.20;;
39344;SDS011;25061;51.954;6.996;2022-12-28T12:10:38;3.33;;;1.00;;
39344;SDS011;25061;51.954;6.996;2022-12-28T12:16:46;4.20;;;0.95;;
39344;SDS011;25061;51.954;6.996;2022-12-28T12:18:45;4.25;;;1.20;;
39344;SDS011;25061;51.954;6.996;2022-12-28T12:21:22;2.50;;;0.95;;
39344;SDS011;25061;51.954;6.996;2022-12-28T12:29:21;2.75;;;1.10;;
39344;SDS011;25061;51.954;6.996;2022-12-28T12:32:01;3.47;;;1.30;;
39344;SDS011;25061;51.954;6.996;2022-12-28T12:37:27;5.05;;;1.20;;
39344;SDS011;25061;51.954;6.996;2022-12-28T12:46:06;3.63;;;1.33;;
39344;SDS011;25061;51.954;6.996;2022-12-28T12:48:43;3.45;;;1.20;;
39344;SDS011;25061;51.954;6.996;2022-12-28T12:54:34;4.20;;;1.20;;
39344;SDS011;25061;51.954;6.996;2022-12-28T12:57:24;6.72;;;1.65;;
39344;SDS011;25061;51.954;6.996;2022-12-28T13:00:03;3.25;;;1.20;;
39344;SDS011;25061;51.954;6.996;2022-12-28T13:05:20;3.13;;;1.33;;
39344;SDS011;25061;51.954;6.996;2022-12-28T13:07:48;4.30;;;1.30;;
39344;SDS011;25061;51.954;6.996;2022-12-28T13:10:15;2.97;;;1.30;;
39344;SDS011;25061;51.954;6.996;2022-12-28T13:13:05;3.80;;;1.10;;
39344;SDS011;25061;51.954;6.996;2022-12-28T13:15:31;3.60;;;1.08;;
39344;SDS011;25061;51.954;6.996;2022-12-28T13:17:57;6.05;;;1.70;;
39344;SDS011;25061;51.954;6.996;2022-12-28T13:20:25;3.42;;;1.20;;
39344;SDS011;25061;51.954;6.996;2022-12-28T13:22:50;4.47;;;1.50;;
39344;SDS011;25061;51.954;6.996;2022-12-28T13:25:26;4.00;;;1.10;;
39344;SDS011;25061;51.954;6.996;2022-12-28T13:27:57;4.68;;;1.52;;
39344;SDS011;25061;51.954;6.996;2022-12-28T13:30:25;5.15;;;1.98;;
39344;SDS011;25061;51.954;6.996;2022-12-28T13:32:56;5.18;;;1.42;;
39344;SDS011;25061;51.954;6.996;2022-12-28T13:35:30;4.15;;;1.35;;
39344;SDS011;25061;51.954;6.996;2022-12-28T13:38:01;3.45;;;1.20;;
39344;SDS011;25061;51.954;6.996;2022-12-28T13:40:33;3.03;;;1.00;;
39344;SDS011;25061;51.954;6.996;2022-12-28T13:43:16;3.83;;;1.20;;
39344;SDS011;25061;51.954;6.996;2022-12-28T13:45:59;4.35;;;1.88;;
39344;SDS011;25061;51.954;6.996;2022-12-28T13:48:31;4.82;;;1.75;;
39344;SDS011;25061;51.954;6.996;2022-12-28T13:51:02;3.80;;;1.55;;
39344;SDS011;25061;51.954;6.996;2022-12-28T13:53:31;6.78;;;2.22;;
39344;SDS011;25061;51.954;6.996;2022-12-28T13:55:59;5.50;;;1.92;;
39344;SDS011;25061;51.954;6.996;2022-12-28T13:58:30;6.05;;;1.85;;
39344;SDS011;25061;51.954;6.996;2022-12-28T14:01:02;4.05;;;1.60;;
39344;SDS011;25061;51.954;6.996;2022-12-28T14:03:31;6.97;;;1.70;;
39344;SDS011;25061;51.954;6.996;2022-12-28T14:06:01;4.15;;;1.55;;
39344;SDS011;25061;51.954;6.996;2022-12-28T14:08:28;7.57;;;2.00;;
39344;SDS011;25061;51.954;6.996;2022-12-28T14:10:58;4.47;;;1.05;;
39344;SDS011;25061;51.954;6.996;2022-12-28T14:13:25;2.88;;;1.17;;
39344;SDS011;25061;51.954;6.996;2022-12-28T14:15:51;4.13;;;1.20;;
39344;SDS011;25061;51.954;6.996;2022-12-28T14:18:18;5.38;;;1.48;;
39344;SDS011;25061;51.954;6.996;2022-12-28T14:20:45;5.78;;;1.40;;
39344;SDS011;25061;51.954;6.996;2022-12-28T14:23:18;3.92;;;1.10;;
39344;SDS011;25061;51.954;6.996;2022-12-28T14:25:44;4.03;;;1.50;;
39344;SDS011;25061;51.954;6.996;2022-12-28T14:28:17;4.25;;;1.23;;
39344;SDS011;25061;51.954;6.996;2022-12-28T14:30:51;4.05;;;1.10;;
39344;SDS011;25061;51.954;6.996;2022-12-28T14:36:04;2.90;;;0.95;;
39344;SDS011;25061;51.954;6.996;2022-12-28T14:38:44;5.03;;;1.63;;
39344;SDS011;25061;51.954;6.996;2022-12-28T14:41:13;3.75;;;1.13;;
39344;SDS011;25061;51.954;6.996;2022-12-28T14:43:55;3.80;;;1.10;;
39344;SDS011;25061;51.954;6.996;2022-12-28T14:46:32;5.20;;;1.00;;
39344;SDS011;25061;51.954;6.996;2022-12-28T14:49:23;7.90;;;1.85;;
39344;SDS011;25061;51.954;6.996;2022-12-28T14:57:42;4.75;;;1.55;;
39344;SDS011;25061;51.954;6.996;2022-12-28T15:02:40;5.68;;;1.77;;
39344;SDS011;25061;51.954;6.996;2022-12-28T15:07:57;6.65;;;1.25;;
39344;SDS011;25061;51.954;6.996;2022-12-28T15:10:23;3.85;;;1.40;;
39344;SDS011;25061;51.954;6.996;2022-12-28T15:12:48;6.47;;;2.15;;
39344;SDS011;25061;51.954;6.996;2022-12-28T15:15:14;6.53;;;1.52;;
39344;SDS011;25061;51.954;6.996;2022-12-28T15:17:39;7.43;;;1.67;;
39344;SDS011;25061;51.954;6.996;2022-12-28T15:20:05;4.40;;;1.05;;
39344;SDS011;25061;51.954;6.996;2022-12-28T15:22:31;4.93;;;1.30;;
39344;SDS011;25061;51.954;6.996;2022-12-28T15:24:57;5.15;;;1.30;;
39344;SDS011;25061;51.954;6.996;2022-12-28T15:27:22;7.15;;;1.15;;
39344;SDS011;25061;51.954;6.996;2022-12-28T15:29:48;4.03;;;1.40;;
39344;SDS011;25061;51.954;6.996;2022-12-28T15:32:13;4.32;;;1.30;;
39344;SDS011;25061;51.954;6.996;2022-12-28T15:34:40;4.38;;;1.10;;
39344;SDS011;25061;51.954;6.996;2022-12-28T15:37:05;6.50;;;1.80;;
39344;SDS011;25061;51.954;6.996;2022-12-28T15:39:31;4.65;;;1.50;;
39344;SDS011;25061;51.954;6.996;2022-12-28T15:41:56;4.45;;;1.40;;
39344;SDS011;25061;51.954;6.996;2022-12-28T15:44:22;3.08;;;1.23;;
39344;SDS011;25061;51.954;6.996;2022-12-28T15:46:48;5.88;;;1.40;;
39344;SDS011;25061;51.954;6.996;2022-12-28T15:49:14;5.30;;;1.52;;
39344;SDS011;25061;51.954;6.996;2022-12-28T15:51:40;6.97;;;1.85;;
39344;SDS011;25061;51.954;6.996;2022-12-28T15:54:07;6.40;;;1.90;;
39344;SDS011;25061;51.954;6.996;2022-12-28T15:56:33;6.95;;;1.90;;
39344;SDS011;25061;51.954;6.996;2022-12-28T15:59:02;7.80;;;1.70;;
39344;SDS011;25061;51.954;6.996;2022-12-28T16:01:30;5.10;;;1.55;;
39344;SDS011;25061;51.954;6.996;2022-12-28T16:03:57;5.80;;;1.50;;
39344;SDS011;25061;51.954;6.996;2022-12-28T16:06:24;9.00;;;2.22;;
39344;SDS011;25061;51.954;6.996;2022-12-28T16:08:52;9.23;;;2.20;;
39344;SDS011;25061;51.954;6.996;2022-12-28T16:11:18;5.55;;;1.70;;
39344;SDS011;25061;51.954;6.996;2022-12-28T16:13:52;5.30;;;2.13;;
39344;SDS011;25061;51.954;6.996;2022-12-28T16:16:19;8.98;;;2.78;;
39344;SDS011;25061;51.954;6.996;2022-12-28T16:18:46;6.45;;;2.13;;
39344;SDS011;25061;51.954;6.996;2022-12-28T16:21:11;8.30;;;2.85;;
39344;SDS011;25061;51.954;6.996;2022-12-28T16:23:39;7.18;;;1.52;;
39344;SDS011;25061;51.954;6.996;2022-12-28T16:26:06;8.07;;;2.38;;
39344;SDS011;25061;51.954;6.996;2022-12-28T16:28:34;5.57;;;1.52;;
39344;SDS011;25061;51.954;6.996;2022-12-28T16:31:00;9.95;;;2.90;;
39344;SDS011;25061;51.954;6.996;2022-12-28T16:33:26;8.20;;;2.35;;
39344;SDS011;25061;51.954;6.996;2022-12-28T16:35:52;5.70;;;2.45;;
39344;SDS011;25061;51.954;6.996;2022-12-28T16:38:18;7.60;;;2.00;;
39344;SDS011;25061;51.954;6.996;2022-12-28T16:40:46;4.15;;;1.30;;
39344;SDS011;25061;51.954;6.996;2022-12-28T16:43:13;6.72;;;2.08;;
39344;SDS011;25061;51.954;6.996;2022-12-28T16:45:40;6.00;;;2.17;;
39344;SDS011;25061;51.954;6.996;2022-12-28T16:48:08;5.95;;;1.50;;
39344;SDS011;25061;51.954;6.996;2022-12-28T16:50:35;6.60;;;2.08;;